EFW22D EGKK-LEZL
Flight info
| Callsign | EFW22D |
|---|---|
| Flight time | 2h 19m |
| Altitude | 33000 |
| Route | IMVUR1Z IMVUR N63 SAM M195 MARUK N621 LELNA DCT NOVAN/N0457F350 DCT DELOG N864 MONTO N857 HIJ HIJ4E |
| Aircraft | A321/M-SDE3FGIJ1KRWXY/SB1 |
Departure
| Time | 2026-05-04 13:18 |
|---|---|
| Airport | London Gatwick Airport (EGKK) |
Arrival
| Time | 2026-05-04 15:38 |
|---|---|
| Airport | Seville Airport (LEZL) |
| Time | Latitude | Longitude | Altitude | Speed | Heading |
|---|---|---|---|---|---|
| 2026-05-04 12:25 | 51.15496 | -0.16903 | 204 ft | 0 kts | 348° |
| 2026-05-04 12:30 | 51.15484 | -0.16962 | 207 ft | 0 kts | 348° |
| 2026-05-04 13:02 | 51.15476 | -0.16960 | 204 ft | 4 kts | 348° |
| 2026-05-04 13:02 | 51.15454 | -0.16952 | 207 ft | 3 kts | 347° |
| 2026-05-04 13:02 | 51.15436 | -0.16939 | 216 ft | 4 kts | 281° |
| 2026-05-04 13:02 | 51.15438 | -0.16901 | 211 ft | 4 kts | 257° |
| 2026-05-04 13:03 | 51.15440 | -0.16885 | 213 ft | 0 kts | 257° |
| 2026-05-04 13:05 | 51.15439 | -0.16890 | 213 ft | 2 kts | 257° |
| 2026-05-04 13:06 | 51.15435 | -0.16925 | 216 ft | 4 kts | 257° |
| 2026-05-04 13:06 | 51.15424 | -0.17002 | 204 ft | 8 kts | 257° |
| 2026-05-04 13:06 | 51.15411 | -0.17096 | 207 ft | 9 kts | 257° |
| 2026-05-04 13:06 | 51.15386 | -0.17198 | 214 ft | 11 kts | 251° |
| 2026-05-04 13:07 | 51.15358 | -0.17328 | 212 ft | 13 kts | 239° |
| 2026-05-04 13:07 | 51.15302 | -0.17431 | 209 ft | 13 kts | 251° |
| 2026-05-04 13:07 | 51.15283 | -0.17579 | 206 ft | 15 kts | 257° |
| 2026-05-04 13:07 | 51.15260 | -0.17744 | 210 ft | 15 kts | 258° |
| 2026-05-04 13:08 | 51.15237 | -0.17912 | 208 ft | 16 kts | 257° |
| 2026-05-04 13:08 | 51.15211 | -0.18098 | 208 ft | 18 kts | 257° |
| 2026-05-04 13:08 | 51.15188 | -0.18270 | 210 ft | 15 kts | 262° |
| 2026-05-04 13:08 | 51.15170 | -0.18440 | 211 ft | 16 kts | 257° |
| 2026-05-04 13:09 | 51.15146 | -0.18617 | 203 ft | 17 kts | 258° |
| 2026-05-04 13:09 | 51.15120 | -0.18802 | 205 ft | 17 kts | 257° |
| 2026-05-04 13:09 | 51.15094 | -0.18991 | 206 ft | 18 kts | 257° |
| 2026-05-04 13:09 | 51.15070 | -0.19173 | 209 ft | 14 kts | 258° |
| 2026-05-04 13:10 | 51.15015 | -0.19261 | 212 ft | 11 kts | 187° |
| 2026-05-04 13:10 | 51.14960 | -0.19331 | 210 ft | 12 kts | 243° |
| 2026-05-04 13:10 | 51.14935 | -0.19485 | 207 ft | 17 kts | 257° |
| 2026-05-04 13:10 | 51.14905 | -0.19699 | 209 ft | 21 kts | 257° |
| 2026-05-04 13:11 | 51.14873 | -0.19933 | 213 ft | 23 kts | 257° |
| 2026-05-04 13:11 | 51.14836 | -0.20198 | 207 ft | 26 kts | 257° |
| 2026-05-04 13:11 | 51.14797 | -0.20483 | 210 ft | 26 kts | 257° |
| 2026-05-04 13:11 | 51.14759 | -0.20763 | 203 ft | 25 kts | 258° |
| 2026-05-04 13:12 | 51.14727 | -0.20991 | 210 ft | 18 kts | 257° |
| 2026-05-04 13:12 | 51.14706 | -0.21145 | 208 ft | 8 kts | 258° |
| 2026-05-04 13:12 | 51.14697 | -0.21204 | 214 ft | 0 kts | 256° |
| 2026-05-04 13:12 | 51.14697 | -0.21208 | 213 ft | 2 kts | 256° |
| 2026-05-04 13:13 | 51.14690 | -0.21254 | 206 ft | 6 kts | 258° |
| 2026-05-04 13:13 | 51.14665 | -0.21324 | 215 ft | 8 kts | 214° |
| 2026-05-04 13:13 | 51.14622 | -0.21327 | 204 ft | 4 kts | 167° |
| 2026-05-04 13:13 | 51.14617 | -0.21325 | 204 ft | 0 kts | 167° |
| 2026-05-04 13:15 | 51.14587 | -0.21314 | 213 ft | 9 kts | 165° |
| 2026-05-04 13:15 | 51.14525 | -0.21236 | 213 ft | 13 kts | 125° |
| 2026-05-04 13:15 | 51.14523 | -0.21143 | 203 ft | 4 kts | 78° |
| 2026-05-04 13:16 | 51.14525 | -0.21132 | 206 ft | 0 kts | 78° |
| 2026-05-04 13:17 | 51.14543 | -0.21002 | 213 ft | 40 kts | 77° |
| 2026-05-04 13:18 | 51.14653 | -0.20201 | 211 ft | 106 kts | 77° |
| 2026-05-04 13:18 | 51.14853 | -0.18748 | 203 ft | 160 kts | 78° |
| 2026-05-04 13:18 | 51.15097 | -0.16895 | 602 ft | 174 kts | 77° |
| 2026-05-04 13:18 | 51.15353 | -0.15008 | 1335 ft | 174 kts | 77° |
| 2026-05-04 13:19 | 51.15614 | -0.13116 | 1792 ft | 185 kts | 77° |
| 2026-05-04 13:19 | 51.15906 | -0.11003 | 2025 ft | 206 kts | 77° |
| 2026-05-04 13:19 | 51.16228 | -0.08669 | 2265 ft | 223 kts | 77° |
| 2026-05-04 13:19 | 51.16801 | -0.06324 | 2818 ft | 229 kts | 51° |
| 2026-05-04 13:20 | 51.18123 | -0.05033 | 3503 ft | 226 kts | 11° |
| 2026-05-04 13:20 | 51.19711 | -0.05157 | 4056 ft | 233 kts | 349° |
| 2026-05-04 13:20 | 51.21241 | -0.05897 | 4686 ft | 236 kts | 327° |
| 2026-05-04 13:20 | 51.22403 | -0.07838 | 5051 ft | 252 kts | 295° |
| 2026-05-04 13:21 | 51.22696 | -0.10602 | 5373 ft | 265 kts | 262° |
| 2026-05-04 13:21 | 51.22370 | -0.13535 | 5980 ft | 270 kts | 258° |
| 2026-05-04 13:21 | 51.22019 | -0.16498 | 6649 ft | 273 kts | 259° |
| 2026-05-04 13:21 | 51.21669 | -0.19480 | 7319 ft | 275 kts | 258° |
| 2026-05-04 13:22 | 51.21317 | -0.22492 | 7984 ft | 277 kts | 258° |
| 2026-05-04 13:22 | 51.20963 | -0.25529 | 8679 ft | 280 kts | 258° |
| 2026-05-04 13:22 | 51.20605 | -0.28598 | 9362 ft | 282 kts | 258° |
| 2026-05-04 13:22 | 51.20245 | -0.31687 | 10012 ft | 285 kts | 258° |
| 2026-05-04 13:23 | 51.19882 | -0.34805 | 10612 ft | 287 kts | 258° |
| 2026-05-04 13:23 | 51.19495 | -0.37942 | 11200 ft | 289 kts | 257° |
| 2026-05-04 13:23 | 51.19084 | -0.41099 | 11786 ft | 292 kts | 257° |
| 2026-05-04 13:23 | 51.18660 | -0.44275 | 12388 ft | 294 kts | 256° |
| 2026-05-04 13:24 | 51.18231 | -0.47475 | 12980 ft | 296 kts | 257° |
| 2026-05-04 13:24 | 51.17801 | -0.50707 | 13573 ft | 299 kts | 257° |
| 2026-05-04 13:24 | 51.17280 | -0.53924 | 14099 ft | 302 kts | 249° |
| 2026-05-04 13:25 | 51.15579 | -0.60445 | 14348 ft | 335 kts | 245° |
| 2026-05-04 13:25 | 51.14640 | -0.63941 | 14474 ft | 350 kts | 245° |
| 2026-05-04 13:25 | 51.13662 | -0.67577 | 14626 ft | 364 kts | 245° |
| 2026-05-04 13:25 | 51.12657 | -0.71311 | 15003 ft | 369 kts | 245° |
| 2026-05-04 13:26 | 51.11642 | -0.75084 | 15455 ft | 373 kts | 245° |
| 2026-05-04 13:26 | 51.10619 | -0.78888 | 15930 ft | 375 kts | 245° |
| 2026-05-04 13:26 | 51.09589 | -0.82726 | 16407 ft | 378 kts | 245° |
| 2026-05-04 13:26 | 51.08554 | -0.86581 | 16884 ft | 381 kts | 245° |
| 2026-05-04 13:27 | 51.07509 | -0.90466 | 17353 ft | 383 kts | 245° |
| 2026-05-04 13:27 | 51.06458 | -0.94373 | 17807 ft | 386 kts | 245° |
| 2026-05-04 13:27 | 51.05396 | -0.98307 | 18255 ft | 388 kts | 244° |
| 2026-05-04 13:27 | 51.04326 | -1.02257 | 18644 ft | 390 kts | 244° |
| 2026-05-04 13:28 | 51.03248 | -1.06224 | 19042 ft | 392 kts | 244° |
| 2026-05-04 13:28 | 51.02165 | -1.10205 | 19456 ft | 393 kts | 244° |
| 2026-05-04 13:28 | 51.01076 | -1.14203 | 19854 ft | 395 kts | 245° |
| 2026-05-04 13:28 | 50.99984 | -1.18210 | 20267 ft | 396 kts | 245° |
| 2026-05-04 13:29 | 50.98886 | -1.22235 | 20673 ft | 398 kts | 245° |
| 2026-05-04 13:29 | 50.97782 | -1.26277 | 21069 ft | 400 kts | 245° |
| 2026-05-04 13:29 | 50.96587 | -1.30257 | 21456 ft | 400 kts | 238° |
| 2026-05-04 13:29 | 50.94991 | -1.33864 | 21851 ft | 400 kts | 228° |
| 2026-05-04 13:30 | 50.93042 | -1.36926 | 22232 ft | 401 kts | 218° |
| 2026-05-04 13:30 | 50.90734 | -1.39509 | 22644 ft | 402 kts | 213° |
| 2026-05-04 13:30 | 50.88386 | -1.41941 | 23059 ft | 404 kts | 213° |
| 2026-05-04 13:30 | 50.86029 | -1.44386 | 23435 ft | 406 kts | 213° |
| 2026-05-04 13:31 | 50.83697 | -1.46809 | 23809 ft | 407 kts | 213° |
| 2026-05-04 13:31 | 50.81300 | -1.49300 | 24152 ft | 408 kts | 213° |
| 2026-05-04 13:31 | 50.78955 | -1.51734 | 24470 ft | 409 kts | 212° |
| 2026-05-04 13:31 | 50.76576 | -1.54203 | 24798 ft | 410 kts | 212° |
| 2026-05-04 13:32 | 50.74187 | -1.56676 | 25117 ft | 411 kts | 212° |
| 2026-05-04 13:32 | 50.71791 | -1.59154 | 25434 ft | 412 kts | 212° |
| 2026-05-04 13:32 | 50.69388 | -1.61636 | 25741 ft | 414 kts | 212° |
| 2026-05-04 13:32 | 50.66976 | -1.64118 | 26066 ft | 415 kts | 212° |
| 2026-05-04 13:33 | 50.64556 | -1.66607 | 26374 ft | 416 kts | 212° |
| 2026-05-04 13:33 | 50.62128 | -1.69103 | 26727 ft | 416 kts | 212° |
| 2026-05-04 13:33 | 50.59700 | -1.71597 | 27068 ft | 417 kts | 211° |
| 2026-05-04 13:33 | 50.57271 | -1.74086 | 27380 ft | 418 kts | 211° |
| 2026-05-04 13:34 | 50.54831 | -1.76582 | 27671 ft | 419 kts | 211° |
| 2026-05-04 13:34 | 50.52383 | -1.79080 | 27944 ft | 420 kts | 211° |
| 2026-05-04 13:34 | 50.49929 | -1.81582 | 28219 ft | 421 kts | 211° |
| 2026-05-04 13:34 | 50.47466 | -1.84089 | 28484 ft | 422 kts | 211° |
| 2026-05-04 13:35 | 50.44998 | -1.86597 | 28719 ft | 424 kts | 211° |
| 2026-05-04 13:35 | 50.40023 | -1.91650 | 29140 ft | 427 kts | 211° |
| 2026-05-04 13:35 | 50.37540 | -1.94179 | 29474 ft | 425 kts | 211° |
| 2026-05-04 13:36 | 50.35062 | -1.96702 | 29825 ft | 423 kts | 211° |
| 2026-05-04 13:36 | 50.32598 | -1.99203 | 30142 ft | 422 kts | 210° |
| 2026-05-04 13:36 | 50.30135 | -2.01695 | 30388 ft | 422 kts | 210° |
| 2026-05-04 13:36 | 50.27659 | -2.04153 | 30592 ft | 421 kts | 207° |
| 2026-05-04 13:37 | 50.25021 | -2.06109 | 30789 ft | 419 kts | 199° |
| 2026-05-04 13:37 | 50.22256 | -2.07352 | 30969 ft | 419 kts | 190° |
| 2026-05-04 13:37 | 50.19367 | -2.07917 | 31153 ft | 419 kts | 184° |
| 2026-05-04 13:37 | 50.17404 | -2.08157 | 31279 ft | 420 kts | 184° |
| 2026-05-04 13:38 | 50.13513 | -2.08646 | 31570 ft | 420 kts | 184° |
| 2026-05-04 13:38 | 50.10638 | -2.09020 | 31761 ft | 420 kts | 185° |
| 2026-05-04 13:38 | 50.07724 | -2.09407 | 31949 ft | 421 kts | 185° |
| 2026-05-04 13:38 | 50.04806 | -2.09797 | 32135 ft | 421 kts | 185° |
| 2026-05-04 13:39 | 50.01885 | -2.10183 | 32315 ft | 422 kts | 184° |
| 2026-05-04 13:39 | 49.98957 | -2.10627 | 32494 ft | 423 kts | 188° |
| 2026-05-04 13:39 | 49.96092 | -2.11649 | 32675 ft | 424 kts | 196° |
| 2026-05-04 13:39 | 49.93269 | -2.12983 | 32854 ft | 424 kts | 196° |
| 2026-05-04 13:40 | 49.90443 | -2.14312 | 32999 ft | 424 kts | 196° |
| 2026-05-04 13:40 | 49.84826 | -2.16939 | 33028 ft | 420 kts | 195° |
| 2026-05-04 13:41 | 49.79229 | -2.19541 | 33028 ft | 420 kts | 195° |
| 2026-05-04 13:41 | 49.73635 | -2.22144 | 33030 ft | 420 kts | 195° |
| 2026-05-04 13:42 | 49.65244 | -2.26024 | 33051 ft | 420 kts | 195° |
| 2026-05-04 13:42 | 49.59645 | -2.28594 | 33040 ft | 420 kts | 195° |
| 2026-05-04 13:43 | 49.54035 | -2.31185 | 33030 ft | 421 kts | 195° |
| 2026-05-04 13:43 | 49.48413 | -2.33778 | 33035 ft | 422 kts | 195° |
| 2026-05-04 13:44 | 49.42794 | -2.36350 | 33041 ft | 421 kts | 195° |
| 2026-05-04 13:44 | 49.37175 | -2.38921 | 33043 ft | 421 kts | 195° |
| 2026-05-04 13:45 | 49.31556 | -2.41490 | 33042 ft | 421 kts | 195° |
| 2026-05-04 13:45 | 49.25940 | -2.44060 | 33039 ft | 421 kts | 195° |
| 2026-05-04 13:46 | 49.20320 | -2.46605 | 33020 ft | 421 kts | 195° |
| 2026-05-04 13:46 | 49.14703 | -2.49139 | 33022 ft | 421 kts | 195° |
| 2026-05-04 13:47 | 49.09082 | -2.51685 | 33018 ft | 421 kts | 195° |
| 2026-05-04 13:47 | 49.03463 | -2.54222 | 33018 ft | 421 kts | 195° |
| 2026-05-04 13:48 | 48.97842 | -2.56761 | 33018 ft | 421 kts | 195° |
| 2026-05-04 13:48 | 48.92260 | -2.59265 | 33018 ft | 421 kts | 195° |
| 2026-05-04 13:49 | 48.86635 | -2.61771 | 33020 ft | 421 kts | 195° |
| 2026-05-04 13:49 | 48.81002 | -2.64285 | 33023 ft | 423 kts | 195° |
| 2026-05-04 13:50 | 48.75344 | -2.66812 | 33016 ft | 424 kts | 195° |
| 2026-05-04 13:50 | 48.69677 | -2.69330 | 33010 ft | 425 kts | 195° |
| 2026-05-04 13:51 | 48.63999 | -2.71855 | 33018 ft | 425 kts | 195° |
| 2026-05-04 13:51 | 48.58318 | -2.74368 | 33008 ft | 426 kts | 195° |
| 2026-05-04 13:52 | 48.49786 | -2.78140 | 32999 ft | 426 kts | 195° |
| 2026-05-04 13:53 | 48.44092 | -2.80640 | 33000 ft | 426 kts | 195° |
| 2026-05-04 13:53 | 48.38390 | -2.83135 | 33007 ft | 427 kts | 195° |
| 2026-05-04 13:54 | 48.29851 | -2.86884 | 32993 ft | 426 kts | 195° |
| 2026-05-04 13:55 | 48.21307 | -2.90594 | 32999 ft | 426 kts | 195° |
| 2026-05-04 13:55 | 48.12763 | -2.94319 | 32993 ft | 427 kts | 195° |
| 2026-05-04 13:56 | 48.07092 | -2.96775 | 32991 ft | 427 kts | 195° |
| 2026-05-04 13:57 | 47.98523 | -3.00477 | 33009 ft | 428 kts | 195° |
| 2026-05-04 13:58 | 47.87077 | -3.05401 | 32994 ft | 428 kts | 195° |
| 2026-05-04 13:58 | 47.78485 | -3.09094 | 33006 ft | 429 kts | 195° |
| 2026-05-04 13:59 | 47.72750 | -3.11548 | 33008 ft | 429 kts | 195° |
| 2026-05-04 14:00 | 47.64146 | -3.15206 | 33009 ft | 429 kts | 195° |
| 2026-05-04 14:00 | 47.55586 | -3.18841 | 33011 ft | 428 kts | 195° |
| 2026-05-04 14:01 | 47.49864 | -3.21270 | 33008 ft | 428 kts | 195° |
| 2026-05-04 14:02 | 47.41280 | -3.24898 | 33011 ft | 428 kts | 195° |
| 2026-05-04 14:02 | 47.35559 | -3.27307 | 33008 ft | 428 kts | 195° |
| 2026-05-04 14:03 | 47.29836 | -3.29703 | 33014 ft | 427 kts | 195° |
| 2026-05-04 14:03 | 47.24116 | -3.32097 | 33022 ft | 428 kts | 195° |
| 2026-05-04 14:04 | 47.15517 | -3.35701 | 32999 ft | 429 kts | 195° |
| 2026-05-04 14:04 | 47.09777 | -3.38106 | 32999 ft | 429 kts | 195° |
| 2026-05-04 14:05 | 47.01149 | -3.41689 | 33002 ft | 430 kts | 195° |
| 2026-05-04 14:06 | 46.96367 | -3.43663 | 33004 ft | 430 kts | 195° |
| 2026-05-04 14:06 | 46.90609 | -3.46046 | 33004 ft | 430 kts | 195° |
| 2026-05-04 14:07 | 46.84855 | -3.48427 | 33015 ft | 430 kts | 195° |
| 2026-05-04 14:07 | 46.79096 | -3.50803 | 33022 ft | 430 kts | 195° |
| 2026-05-04 14:08 | 46.73333 | -3.53171 | 33009 ft | 430 kts | 195° |
| 2026-05-04 14:08 | 46.67575 | -3.55529 | 33002 ft | 430 kts | 195° |
| 2026-05-04 14:09 | 46.58941 | -3.59049 | 33001 ft | 430 kts | 195° |
| 2026-05-04 14:10 | 46.50308 | -3.62576 | 33024 ft | 430 kts | 195° |
| 2026-05-04 14:10 | 46.44543 | -3.64920 | 33013 ft | 431 kts | 195° |
| 2026-05-04 14:11 | 46.38772 | -3.67269 | 33015 ft | 431 kts | 195° |
| 2026-05-04 14:11 | 46.30022 | -3.70266 | 33006 ft | 431 kts | 186° |
| 2026-05-04 14:12 | 46.24055 | -3.71128 | 33015 ft | 431 kts | 186° |
| 2026-05-04 14:13 | 46.15119 | -3.72458 | 33010 ft | 430 kts | 186° |
| 2026-05-04 14:13 | 46.09161 | -3.73368 | 33011 ft | 430 kts | 186° |
| 2026-05-04 14:14 | 46.03211 | -3.74250 | 33017 ft | 430 kts | 186° |
| 2026-05-04 14:14 | 45.94288 | -3.75565 | 33014 ft | 429 kts | 186° |
| 2026-05-04 14:15 | 45.82403 | -3.77319 | 33015 ft | 429 kts | 186° |
| 2026-05-04 14:16 | 45.73506 | -3.78618 | 33017 ft | 428 kts | 186° |
| 2026-05-04 14:17 | 45.64615 | -3.79927 | 33011 ft | 428 kts | 186° |
| 2026-05-04 14:18 | 45.55776 | -3.81230 | 33016 ft | 427 kts | 186° |
| 2026-05-04 14:19 | 45.43951 | -3.82941 | 33012 ft | 427 kts | 186° |
| 2026-05-04 14:19 | 45.38039 | -3.83786 | 33010 ft | 427 kts | 186° |
| 2026-05-04 14:20 | 45.32130 | -3.84643 | 33009 ft | 427 kts | 186° |
| 2026-05-04 14:20 | 45.26219 | -3.85488 | 33005 ft | 427 kts | 186° |
| 2026-05-04 14:21 | 45.17343 | -3.86764 | 33021 ft | 427 kts | 187° |
| 2026-05-04 14:21 | 45.11434 | -3.87620 | 33011 ft | 427 kts | 187° |
| 2026-05-04 14:22 | 45.05521 | -3.88469 | 33013 ft | 427 kts | 187° |
| 2026-05-04 14:22 | 44.99603 | -3.89326 | 33014 ft | 427 kts | 187° |
| 2026-05-04 14:23 | 44.90733 | -3.90606 | 33010 ft | 427 kts | 187° |
| 2026-05-04 14:24 | 44.84817 | -3.91444 | 33028 ft | 427 kts | 187° |
| 2026-05-04 14:24 | 44.78939 | -3.92271 | 33015 ft | 427 kts | 187° |
| 2026-05-04 14:25 | 44.73025 | -3.93102 | 33017 ft | 427 kts | 187° |
| 2026-05-04 14:25 | 44.64149 | -3.94364 | 33015 ft | 427 kts | 187° |
| 2026-05-04 14:26 | 44.58236 | -3.95206 | 33015 ft | 427 kts | 187° |
| 2026-05-04 14:26 | 44.52316 | -3.96040 | 33009 ft | 427 kts | 187° |
| 2026-05-04 14:27 | 44.46401 | -3.96868 | 33012 ft | 427 kts | 187° |
| 2026-05-04 14:27 | 44.40487 | -3.97696 | 33016 ft | 427 kts | 187° |
| 2026-05-04 14:28 | 44.34576 | -3.98529 | 33017 ft | 427 kts | 187° |
| 2026-05-04 14:28 | 44.28628 | -3.98353 | 33017 ft | 429 kts | 178° |
| 2026-05-04 14:29 | 44.16716 | -3.97175 | 33024 ft | 429 kts | 178° |
| 2026-05-04 14:30 | 44.10759 | -3.96600 | 33009 ft | 429 kts | 178° |
| 2026-05-04 14:31 | 44.01863 | -3.95729 | 33016 ft | 429 kts | 178° |
| 2026-05-04 14:32 | 43.89940 | -3.94563 | 33021 ft | 429 kts | 179° |
| 2026-05-04 14:32 | 43.83975 | -3.93995 | 33028 ft | 430 kts | 179° |
| 2026-05-04 14:33 | 43.78012 | -3.93414 | 33027 ft | 430 kts | 179° |
| 2026-05-04 14:33 | 43.72052 | -3.92841 | 33027 ft | 430 kts | 179° |
| 2026-05-04 14:34 | 43.66085 | -3.92273 | 33033 ft | 430 kts | 179° |
| 2026-05-04 14:34 | 43.60122 | -3.91696 | 33041 ft | 429 kts | 179° |
| 2026-05-04 14:35 | 43.54161 | -3.91122 | 33051 ft | 430 kts | 179° |
| 2026-05-04 14:35 | 43.48193 | -3.90550 | 33063 ft | 430 kts | 179° |
| 2026-05-04 14:36 | 43.42254 | -3.90640 | 33066 ft | 426 kts | 189° |
| 2026-05-04 14:36 | 43.36364 | -3.91524 | 33059 ft | 426 kts | 189° |
| 2026-05-04 14:37 | 43.30476 | -3.92395 | 33061 ft | 426 kts | 189° |
| 2026-05-04 14:37 | 43.24619 | -3.93259 | 33043 ft | 426 kts | 189° |
| 2026-05-04 14:38 | 43.18721 | -3.94129 | 33044 ft | 426 kts | 189° |
| 2026-05-04 14:38 | 43.12827 | -3.94998 | 33034 ft | 426 kts | 189° |
| 2026-05-04 14:39 | 43.06934 | -3.95876 | 33042 ft | 426 kts | 189° |
| 2026-05-04 14:39 | 43.01044 | -3.96747 | 33041 ft | 426 kts | 189° |
| 2026-05-04 14:40 | 42.92175 | -3.98037 | 33252 ft | 429 kts | 189° |
| 2026-05-04 14:40 | 42.89205 | -3.98465 | 33505 ft | 429 kts | 189° |
| 2026-05-04 14:40 | 42.86236 | -3.98896 | 33764 ft | 429 kts | 189° |
| 2026-05-04 14:41 | 42.83274 | -3.99332 | 34006 ft | 428 kts | 189° |
| 2026-05-04 14:41 | 42.80314 | -3.99767 | 34187 ft | 428 kts | 189° |
| 2026-05-04 14:41 | 42.74384 | -4.00629 | 34511 ft | 429 kts | 189° |
| 2026-05-04 14:42 | 42.68444 | -4.01490 | 34847 ft | 429 kts | 189° |
| 2026-05-04 14:42 | 42.65474 | -4.01922 | 34974 ft | 430 kts | 189° |
| 2026-05-04 14:42 | 42.62499 | -4.02355 | 35005 ft | 431 kts | 189° |
| 2026-05-04 14:43 | 42.56537 | -4.03224 | 35002 ft | 431 kts | 189° |
| 2026-05-04 14:43 | 42.50616 | -4.04074 | 34997 ft | 431 kts | 189° |
| 2026-05-04 14:44 | 42.44642 | -4.04919 | 34989 ft | 432 kts | 189° |
| 2026-05-04 14:44 | 42.38668 | -4.05776 | 34991 ft | 432 kts | 190° |
| 2026-05-04 14:45 | 42.32689 | -4.06641 | 34994 ft | 432 kts | 190° |
| 2026-05-04 14:45 | 42.26704 | -4.07501 | 34998 ft | 433 kts | 190° |
| 2026-05-04 14:46 | 42.20713 | -4.08358 | 34996 ft | 433 kts | 190° |
| 2026-05-04 14:46 | 42.14711 | -4.09214 | 35001 ft | 434 kts | 190° |
| 2026-05-04 14:47 | 42.08711 | -4.10061 | 34992 ft | 434 kts | 190° |
| 2026-05-04 14:47 | 42.02709 | -4.10918 | 35000 ft | 434 kts | 190° |
| 2026-05-04 14:48 | 41.96688 | -4.11671 | 35007 ft | 435 kts | 189° |
| 2026-05-04 14:48 | 41.90657 | -4.12323 | 34987 ft | 435 kts | 189° |
| 2026-05-04 14:49 | 41.84626 | -4.12983 | 35000 ft | 435 kts | 189° |
| 2026-05-04 14:49 | 41.78593 | -4.13668 | 35006 ft | 435 kts | 189° |
| 2026-05-04 14:50 | 41.72600 | -4.14350 | 35005 ft | 435 kts | 189° |
| 2026-05-04 14:50 | 41.66567 | -4.15036 | 34987 ft | 435 kts | 190° |
| 2026-05-04 14:51 | 41.60536 | -4.15726 | 35010 ft | 435 kts | 190° |
| 2026-05-04 14:51 | 41.54503 | -4.16409 | 35006 ft | 435 kts | 190° |
| 2026-05-04 14:52 | 41.48465 | -4.17084 | 34981 ft | 435 kts | 190° |
| 2026-05-04 14:52 | 41.42431 | -4.17755 | 34994 ft | 435 kts | 190° |
| 2026-05-04 14:53 | 41.36397 | -4.18430 | 35006 ft | 435 kts | 190° |
| 2026-05-04 14:53 | 41.30370 | -4.19103 | 35010 ft | 435 kts | 190° |
| 2026-05-04 14:54 | 41.24338 | -4.19783 | 34994 ft | 435 kts | 191° |
| 2026-05-04 14:54 | 41.18315 | -4.20463 | 35006 ft | 435 kts | 191° |
| 2026-05-04 14:55 | 41.12286 | -4.21141 | 35010 ft | 435 kts | 191° |
| 2026-05-04 14:55 | 41.06263 | -4.21809 | 35011 ft | 434 kts | 191° |
| 2026-05-04 14:56 | 41.00239 | -4.22479 | 34996 ft | 434 kts | 191° |
| 2026-05-04 14:56 | 40.95234 | -4.23031 | 35004 ft | 434 kts | 191° |
| 2026-05-04 14:57 | 40.89221 | -4.23686 | 35005 ft | 434 kts | 191° |
| 2026-05-04 14:57 | 40.83204 | -4.24339 | 34997 ft | 434 kts | 191° |
| 2026-05-04 14:58 | 40.77191 | -4.25001 | 34995 ft | 433 kts | 191° |
| 2026-05-04 14:58 | 40.71188 | -4.25660 | 35002 ft | 433 kts | 191° |
| 2026-05-04 14:59 | 40.65179 | -4.26322 | 35001 ft | 433 kts | 191° |
| 2026-05-04 15:00 | 40.56176 | -4.27309 | 34993 ft | 433 kts | 191° |
| 2026-05-04 15:00 | 40.50217 | -4.27964 | 34990 ft | 433 kts | 191° |
| 2026-05-04 15:01 | 40.41214 | -4.28957 | 34991 ft | 433 kts | 191° |
| 2026-05-04 15:01 | 40.35219 | -4.29609 | 34964 ft | 432 kts | 191° |
| 2026-05-04 15:02 | 40.29229 | -4.30257 | 34977 ft | 432 kts | 191° |
| 2026-05-04 15:02 | 40.23240 | -4.30903 | 34979 ft | 431 kts | 191° |
| 2026-05-04 15:03 | 40.17255 | -4.31557 | 34960 ft | 431 kts | 191° |
| 2026-05-04 15:03 | 40.11281 | -4.32206 | 34976 ft | 431 kts | 191° |
| 2026-05-04 15:04 | 40.05309 | -4.32846 | 34978 ft | 430 kts | 191° |
| 2026-05-04 15:04 | 39.99339 | -4.33487 | 34977 ft | 430 kts | 191° |
| 2026-05-04 15:05 | 39.93406 | -4.34307 | 34956 ft | 427 kts | 195° |
| 2026-05-04 15:05 | 39.87569 | -4.35608 | 34975 ft | 424 kts | 197° |
| 2026-05-04 15:06 | 39.81762 | -4.37004 | 34984 ft | 424 kts | 196° |
| 2026-05-04 15:07 | 39.73025 | -4.38929 | 34989 ft | 425 kts | 195° |
| 2026-05-04 15:07 | 39.67229 | -4.40151 | 34986 ft | 424 kts | 195° |
| 2026-05-04 15:08 | 39.61405 | -4.41380 | 34991 ft | 424 kts | 195° |
| 2026-05-04 15:08 | 39.55586 | -4.42619 | 34996 ft | 424 kts | 196° |
| 2026-05-04 15:09 | 39.49770 | -4.43855 | 34998 ft | 424 kts | 196° |
| 2026-05-04 15:09 | 39.43959 | -4.45092 | 34989 ft | 423 kts | 196° |
| 2026-05-04 15:10 | 39.35258 | -4.46926 | 35006 ft | 422 kts | 196° |
| 2026-05-04 15:11 | 39.26572 | -4.48765 | 35006 ft | 422 kts | 196° |
| 2026-05-04 15:11 | 39.21055 | -4.50875 | 35012 ft | 407 kts | 212° |
| 2026-05-04 15:12 | 39.16311 | -4.54709 | 35014 ft | 402 kts | 218° |
| 2026-05-04 15:12 | 39.11649 | -4.58688 | 35014 ft | 402 kts | 218° |
| 2026-05-04 15:13 | 39.06968 | -4.62665 | 35005 ft | 403 kts | 218° |
| 2026-05-04 15:13 | 39.02279 | -4.66644 | 34977 ft | 404 kts | 218° |
| 2026-05-04 15:14 | 38.97592 | -4.70625 | 34996 ft | 403 kts | 218° |
| 2026-05-04 15:14 | 38.92909 | -4.74599 | 35009 ft | 403 kts | 218° |
| 2026-05-04 15:15 | 38.88225 | -4.78564 | 35013 ft | 403 kts | 218° |
| 2026-05-04 15:15 | 38.85883 | -4.80540 | 34789 ft | 402 kts | 218° |
| 2026-05-04 15:15 | 38.83550 | -4.82503 | 34495 ft | 400 kts | 218° |
| 2026-05-04 15:16 | 38.78890 | -4.86428 | 33008 ft | 401 kts | 218° |
| 2026-05-04 15:16 | 38.76559 | -4.88390 | 32313 ft | 401 kts | 218° |
| 2026-05-04 15:16 | 38.71892 | -4.92313 | 31039 ft | 398 kts | 218° |
| 2026-05-04 15:17 | 38.69590 | -4.94240 | 30563 ft | 393 kts | 218° |
| 2026-05-04 15:17 | 38.65067 | -4.98026 | 29575 ft | 384 kts | 219° |
| 2026-05-04 15:17 | 38.62851 | -4.99882 | 29107 ft | 377 kts | 219° |
| 2026-05-04 15:18 | 38.60700 | -5.01687 | 28649 ft | 372 kts | 219° |
| 2026-05-04 15:18 | 38.58555 | -5.03487 | 28194 ft | 367 kts | 219° |
| 2026-05-04 15:18 | 38.56425 | -5.05275 | 27744 ft | 365 kts | 219° |
| 2026-05-04 15:19 | 38.52200 | -5.08799 | 26840 ft | 361 kts | 217° |
| 2026-05-04 15:19 | 38.49954 | -5.10254 | 26378 ft | 365 kts | 208° |
| 2026-05-04 15:19 | 38.45097 | -5.12207 | 25379 ft | 364 kts | 204° |
| 2026-05-04 15:20 | 38.42680 | -5.13150 | 24897 ft | 362 kts | 204° |
| 2026-05-04 15:20 | 38.40279 | -5.14095 | 24412 ft | 360 kts | 204° |
| 2026-05-04 15:20 | 38.37893 | -5.15034 | 23948 ft | 358 kts | 204° |
| 2026-05-04 15:20 | 38.35520 | -5.15967 | 23477 ft | 356 kts | 204° |
| 2026-05-04 15:21 | 38.33161 | -5.16890 | 22993 ft | 353 kts | 204° |
| 2026-05-04 15:21 | 38.30815 | -5.17805 | 22551 ft | 351 kts | 203° |
| 2026-05-04 15:21 | 38.26164 | -5.19621 | 21709 ft | 348 kts | 204° |
| 2026-05-04 15:22 | 38.23860 | -5.20522 | 21275 ft | 346 kts | 204° |
| 2026-05-04 15:22 | 38.21566 | -5.21417 | 20841 ft | 344 kts | 203° |
| 2026-05-04 15:22 | 38.17010 | -5.23190 | 19978 ft | 340 kts | 203° |
| 2026-05-04 15:23 | 38.14750 | -5.24068 | 19545 ft | 339 kts | 203° |
| 2026-05-04 15:23 | 38.12500 | -5.24941 | 19091 ft | 337 kts | 203° |
| 2026-05-04 15:23 | 38.10264 | -5.25809 | 18645 ft | 335 kts | 203° |
| 2026-05-04 15:23 | 38.08041 | -5.26677 | 18170 ft | 333 kts | 203° |
| 2026-05-04 15:24 | 38.03645 | -5.28390 | 17226 ft | 328 kts | 202° |
| 2026-05-04 15:24 | 37.99310 | -5.30066 | 16324 ft | 324 kts | 202° |
| 2026-05-04 15:25 | 37.97160 | -5.30898 | 15872 ft | 322 kts | 202° |
| 2026-05-04 15:25 | 37.95022 | -5.31724 | 15411 ft | 320 kts | 201° |
| 2026-05-04 15:25 | 37.92898 | -5.32544 | 14969 ft | 319 kts | 201° |
| 2026-05-04 15:26 | 37.88678 | -5.34167 | 14084 ft | 316 kts | 201° |
| 2026-05-04 15:26 | 37.86583 | -5.34975 | 13616 ft | 314 kts | 201° |
| 2026-05-04 15:26 | 37.82430 | -5.36581 | 12694 ft | 310 kts | 201° |
| 2026-05-04 15:27 | 37.80372 | -5.37376 | 12260 ft | 309 kts | 200° |
| 2026-05-04 15:27 | 37.76453 | -5.39307 | 11413 ft | 300 kts | 214° |
| 2026-05-04 15:28 | 37.73276 | -5.42603 | 10593 ft | 294 kts | 224° |
| 2026-05-04 15:28 | 37.71768 | -5.44300 | 10377 ft | 284 kts | 224° |
| 2026-05-04 15:28 | 37.68870 | -5.47543 | 9909 ft | 274 kts | 224° |
| 2026-05-04 15:29 | 37.67441 | -5.49144 | 9784 ft | 274 kts | 224° |
| 2026-05-04 15:30 | 37.61747 | -5.55593 | 8534 ft | 276 kts | 225° |
| 2026-05-04 15:30 | 37.57507 | -5.60448 | 7148 ft | 271 kts | 224° |
| 2026-05-04 15:31 | 37.54702 | -5.63591 | 6163 ft | 274 kts | 217° |
| 2026-05-04 15:31 | 37.52930 | -5.64383 | 5594 ft | 276 kts | 184° |
| 2026-05-04 15:32 | 37.47877 | -5.61001 | 4174 ft | 277 kts | 152° |
| 2026-05-04 15:32 | 37.44401 | -5.59868 | 3649 ft | 240 kts | 197° |
| 2026-05-04 15:33 | 37.42073 | -5.62285 | 3553 ft | 213 kts | 250° |
| 2026-05-04 15:34 | 37.41841 | -5.67650 | 3164 ft | 206 kts | 270° |
| 2026-05-04 15:34 | 37.41839 | -5.69433 | 2912 ft | 202 kts | 271° |
| 2026-05-04 15:34 | 37.41833 | -5.72997 | 2370 ft | 203 kts | 271° |
| 2026-05-04 15:35 | 37.41827 | -5.76440 | 1849 ft | 190 kts | 270° |
| 2026-05-04 15:35 | 37.41823 | -5.78020 | 1622 ft | 171 kts | 271° |
| 2026-05-04 15:35 | 37.41820 | -5.79472 | 1387 ft | 162 kts | 272° |
| 2026-05-04 15:36 | 37.41814 | -5.82122 | 984 ft | 147 kts | 271° |
| 2026-05-04 15:36 | 37.41811 | -5.83396 | 779 ft | 145 kts | 270° |
| 2026-05-04 15:36 | 37.41808 | -5.84669 | 585 ft | 145 kts | 268° |
| 2026-05-04 15:37 | 37.41804 | -5.85947 | 394 ft | 146 kts | 269° |
| 2026-05-04 15:37 | 37.41801 | -5.87208 | 207 ft | 144 kts | 269° |
| 2026-05-04 15:37 | 37.41799 | -5.88419 | 109 ft | 126 kts | 269° |
| 2026-05-04 15:37 | 37.41794 | -5.89328 | 100 ft | 79 kts | 270° |
| 2026-05-04 15:38 | 37.41792 | -5.89856 | 99 ft | 51 kts | 270° |
| 2026-05-04 15:38 | 37.41790 | -5.90188 | 97 ft | 20 kts | 270° |
| 2026-05-04 15:38 | 37.41845 | -5.90298 | 97 ft | 16 kts | 343° |
| 2026-05-04 15:38 | 37.41950 | -5.90304 | 96 ft | 10 kts | 4° |
| 2026-05-04 15:39 | 37.41979 | -5.90243 | 95 ft | 9 kts | 85° |
| 2026-05-04 15:39 | 37.41980 | -5.90157 | 95 ft | 10 kts | 89° |
| 2026-05-04 15:39 | 37.41980 | -5.89956 | 96 ft | 13 kts | 89° |
| 2026-05-04 15:40 | 37.41998 | -5.89858 | 96 ft | 10 kts | 57° |
| 2026-05-04 15:40 | 37.42051 | -5.89785 | 96 ft | 14 kts | 45° |
| 2026-05-04 15:40 | 37.42129 | -5.89688 | 95 ft | 15 kts | 44° |
| 2026-05-04 15:40 | 37.42202 | -5.89649 | 95 ft | 12 kts | 337° |
| 2026-05-04 15:41 | 37.42259 | -5.89725 | 94 ft | 11 kts | 285° |
| 2026-05-04 15:41 | 37.42235 | -5.89797 | 94 ft | 7 kts | 244° |
| 2026-05-04 15:41 | 37.42252 | -5.89849 | 95 ft | 6 kts | 308° |
| 2026-05-04 15:41 | 37.42273 | -5.89876 | 96 ft | 2 kts | 314° |
| 2026-05-04 15:42 | 37.42276 | -5.89881 | 96 ft | 1 kts | 314° |
| 2026-05-04 15:42 | 37.42277 | -5.89882 | 95 ft | 0 kts | 314° |